createdAt,value
2023-02-20T00:02:20.057Z,1017.53
2023-02-20T00:04:53.300Z,1017.55
2023-02-20T00:07:26.284Z,1017.55
2023-02-20T00:09:58.924Z,1017.57
2023-02-20T00:12:32.285Z,1017.54
2023-02-20T00:15:04.945Z,1017.53
2023-02-20T00:17:38.209Z,1017.51
2023-02-20T00:20:11.072Z,1017.51
2023-02-20T00:22:44.055Z,1017.49
2023-02-20T00:25:17.396Z,1017.47
2023-02-20T00:27:51.308Z,1017.47
2023-02-20T00:30:24.271Z,1017.43
2023-02-20T00:32:57.220Z,1017.40
2023-02-20T00:35:29.969Z,1017.37
2023-02-20T00:38:02.961Z,1017.35
2023-02-20T00:40:35.986Z,1017.34
2023-02-20T00:43:09.292Z,1017.34
2023-02-20T00:45:42.148Z,1017.34
2023-02-20T00:48:14.997Z,1017.33
2023-02-20T00:50:48.033Z,1017.32
2023-02-20T00:53:21.428Z,1017.31
2023-02-20T00:55:54.127Z,1017.29
2023-02-20T00:58:27.519Z,1017.27
2023-02-20T01:01:01.026Z,1017.25
2023-02-20T01:03:34.032Z,1017.21
2023-02-20T01:06:07.051Z,1017.20
2023-02-20T01:08:40.292Z,1017.18
2023-02-20T01:11:13.372Z,1017.17
2023-02-20T01:13:46.339Z,1017.20
2023-02-20T01:16:19.457Z,1017.20
2023-02-20T01:18:52.367Z,1017.21
2023-02-20T01:21:25.262Z,1017.22
2023-02-20T01:23:58.248Z,1017.22
2023-02-20T01:26:31.320Z,1017.21
2023-02-20T01:29:04.052Z,1017.21
2023-02-20T01:31:37.480Z,1017.19
2023-02-20T01:34:10.276Z,1017.15
2023-02-20T01:36:43.363Z,1017.13
2023-02-20T01:39:16.374Z,1017.13
2023-02-20T01:41:49.186Z,1017.11
2023-02-20T01:44:22.324Z,1017.09
2023-02-20T01:46:55.417Z,1017.11
2023-02-20T01:49:28.158Z,1017.13
2023-02-20T01:52:01.239Z,1017.15
2023-02-20T01:54:34.214Z,1017.16
2023-02-20T01:57:07.343Z,1017.15
2023-02-20T01:59:40.176Z,1017.13
2023-02-20T02:02:27.341Z,1017.13
2023-02-20T02:05:00.275Z,1017.12
2023-02-20T02:07:33.364Z,1017.11
2023-02-20T02:10:06.414Z,1017.11
2023-02-20T02:12:39.471Z,1017.11
2023-02-20T02:15:12.384Z,1017.10
2023-02-20T02:17:45.562Z,1017.09
2023-02-20T02:20:19.341Z,1017.07
2023-02-20T02:22:52.487Z,1017.05
2023-02-20T02:25:25.493Z,1017.03
2023-02-20T02:27:58.268Z,1016.98
2023-02-20T02:30:31.307Z,1016.93
2023-02-20T02:33:04.457Z,1016.90
2023-02-20T02:35:37.213Z,1016.87
2023-02-20T02:38:10.281Z,1016.85
2023-02-20T02:40:43.264Z,1016.84
2023-02-20T02:43:16.322Z,1016.82
2023-02-20T02:45:49.572Z,1016.81
2023-02-20T02:48:22.671Z,1016.78
2023-02-20T02:50:56.467Z,1016.74
2023-02-20T02:53:29.642Z,1016.71
2023-02-20T02:56:02.511Z,1016.70
2023-02-20T02:58:35.537Z,1016.68
2023-02-20T03:01:08.322Z,1016.68
2023-02-20T03:03:41.205Z,1016.68
2023-02-20T03:06:28.481Z,1016.68
2023-02-20T03:09:01.400Z,1016.68
2023-02-20T03:11:34.557Z,1016.67
2023-02-20T03:14:07.497Z,1016.68
2023-02-20T03:16:40.328Z,1016.67
2023-02-20T03:19:13.486Z,1016.66
2023-02-20T03:21:46.670Z,1016.64
2023-02-20T03:24:20.595Z,1016.64
2023-02-20T03:26:53.371Z,1016.63
2023-02-20T03:29:26.593Z,1016.63
2023-02-20T03:31:59.722Z,1016.61
2023-02-20T03:34:32.364Z,1016.58
2023-02-20T03:37:05.564Z,1016.58
2023-02-20T03:39:38.395Z,1016.56
2023-02-20T03:42:11.241Z,1016.55
2023-02-20T03:44:44.722Z,1016.55
2023-02-20T03:47:18.264Z,1016.58
2023-02-20T03:49:51.665Z,1016.61
2023-02-20T03:52:24.617Z,1016.63
2023-02-20T03:54:57.390Z,1016.66
2023-02-20T03:57:30.638Z,1016.68
2023-02-20T04:00:03.429Z,1016.68
2023-02-20T04:02:36.487Z,1016.70
2023-02-20T04:05:09.929Z,1016.69
2023-02-20T04:07:43.594Z,1016.69
2023-02-20T04:10:16.344Z,1016.70
2023-02-20T04:12:49.703Z,1016.71
2023-02-20T04:15:22.301Z,1016.71
2023-02-20T04:17:55.574Z,1016.71
2023-02-20T04:20:28.302Z,1016.71
2023-02-20T04:23:01.635Z,1016.72
2023-02-20T04:25:34.732Z,1016.71
2023-02-20T04:28:07.625Z,1016.70
2023-02-20T04:30:40.822Z,1016.71
2023-02-20T04:33:13.327Z,1016.73
2023-02-20T04:35:46.778Z,1016.75
2023-02-20T04:38:20.615Z,1016.75
2023-02-20T04:40:53.515Z,1016.77
2023-02-20T04:43:26.468Z,1016.77
2023-02-20T04:45:59.567Z,1016.76
2023-02-20T04:48:32.481Z,1016.75
2023-02-20T04:51:05.682Z,1016.72
2023-02-20T04:53:38.482Z,1016.71
2023-02-20T04:56:12.203Z,1016.70
2023-02-20T04:58:45.975Z,1016.71
2023-02-20T05:01:19.711Z,1016.71
2023-02-20T05:03:52.438Z,1016.74
2023-02-20T05:06:25.681Z,1016.75
2023-02-20T05:08:58.706Z,1016.78
2023-02-20T05:11:31.600Z,1016.81
2023-02-20T05:14:04.844Z,1016.82
2023-02-20T05:16:38.550Z,1016.82
2023-02-20T05:19:11.750Z,1016.81
2023-02-20T05:21:44.731Z,1016.80
2023-02-20T05:24:17.480Z,1016.78
2023-02-20T05:26:50.953Z,1016.76
2023-02-20T05:29:24.561Z,1016.75
2023-02-20T05:31:57.809Z,1016.73
2023-02-20T05:34:30.805Z,1016.72
2023-02-20T05:37:03.567Z,1016.72
2023-02-20T05:39:36.802Z,1016.73
2023-02-20T05:42:09.626Z,1016.74
2023-02-20T05:44:42.554Z,1016.73
2023-02-20T05:47:15.737Z,1016.74
2023-02-20T05:49:48.739Z,1016.75
2023-02-20T05:52:21.451Z,1016.75
2023-02-20T05:54:54.613Z,1016.75
2023-02-20T05:57:27.545Z,1016.74
2023-02-20T06:00:00.811Z,1016.74
2023-02-20T06:02:33.569Z,1016.75
2023-02-20T06:05:06.809Z,1016.73
2023-02-20T06:07:39.641Z,1016.72
2023-02-20T06:10:12.775Z,1016.70
2023-02-20T06:12:46.044Z,1016.68
2023-02-20T06:15:19.461Z,1016.66
2023-02-20T06:17:52.823Z,1016.64
2023-02-20T06:20:25.780Z,1016.62
2023-02-20T06:22:58.841Z,1016.59
2023-02-20T06:25:31.802Z,1016.59
2023-02-20T06:28:04.867Z,1016.59
2023-02-20T06:30:37.836Z,1016.59
2023-02-20T06:33:10.623Z,1016.61
2023-02-20T06:35:43.884Z,1016.63
2023-02-20T06:38:16.809Z,1016.62
2023-02-20T06:40:49.627Z,1016.61
2023-02-20T06:43:22.868Z,1016.62
2023-02-20T06:45:55.621Z,1016.61
2023-02-20T06:48:28.767Z,1016.60
2023-02-20T06:51:01.921Z,1016.61
2023-02-20T06:53:34.673Z,1016.62
2023-02-20T06:56:07.798Z,1016.61
2023-02-20T06:58:40.785Z,1016.63
2023-02-20T07:01:13.678Z,1016.65
2023-02-20T07:03:46.676Z,1016.66
2023-02-20T07:06:19.586Z,1016.69
2023-02-20T07:08:52.777Z,1016.69
2023-02-20T07:11:25.620Z,1016.71
2023-02-20T07:13:58.801Z,1016.75
2023-02-20T07:16:31.596Z,1016.78
2023-02-20T07:19:04.842Z,1016.81
2023-02-20T07:21:37.906Z,1016.85
2023-02-20T07:24:10.794Z,1016.85
2023-02-20T07:26:43.834Z,1016.87
2023-02-20T07:29:16.889Z,1016.90
2023-02-20T07:31:49.817Z,1016.93
2023-02-20T07:34:22.745Z,1016.95
2023-02-20T07:36:55.957Z,1016.97
2023-02-20T07:39:28.990Z,1016.96
2023-02-20T07:42:02.010Z,1016.94
2023-02-20T07:44:34.729Z,1016.89
2023-02-20T07:47:07.897Z,1016.85
2023-02-20T07:49:40.996Z,1016.84
2023-02-20T07:52:14.014Z,1016.83
2023-02-20T07:54:47.210Z,1016.84
2023-02-20T07:57:22.497Z,1016.83
2023-02-20T07:59:55.951Z,1016.82
2023-02-20T08:02:28.964Z,1016.81
2023-02-20T08:05:03.023Z,1016.79
2023-02-20T08:07:35.951Z,1016.78
2023-02-20T08:10:09.001Z,1016.75
2023-02-20T08:12:41.969Z,1016.75
2023-02-20T08:15:15.118Z,1016.74
2023-02-20T08:17:48.055Z,1016.71
2023-02-20T08:20:20.692Z,1016.69
2023-02-20T08:22:53.796Z,1016.67
2023-02-20T08:25:27.255Z,1016.63
2023-02-20T08:28:00.995Z,1016.60
2023-02-20T08:30:33.735Z,1016.56
2023-02-20T08:33:07.038Z,1016.53
2023-02-20T08:35:41.130Z,1016.51
2023-02-20T08:38:13.858Z,1016.49
2023-02-20T08:40:46.687Z,1016.47
2023-02-20T08:43:19.741Z,1016.43
2023-02-20T08:45:52.884Z,1016.40
2023-02-20T08:48:25.870Z,1016.37
2023-02-20T08:50:58.796Z,1016.35
2023-02-20T08:53:31.904Z,1016.32
2023-02-20T08:56:04.838Z,1016.29
2023-02-20T08:58:38.061Z,1016.28
2023-02-20T09:01:10.879Z,1016.26
2023-02-20T09:03:43.922Z,1016.25
2023-02-20T09:06:16.727Z,1016.22
2023-02-20T09:08:49.904Z,1016.19
2023-02-20T09:11:22.737Z,1016.16
2023-02-20T09:13:55.888Z,1016.13
2023-02-20T09:16:29.004Z,1016.10
2023-02-20T09:19:01.940Z,1016.09
2023-02-20T09:21:34.777Z,1016.06
2023-02-20T09:24:07.904Z,1016.03
2023-02-20T09:26:40.982Z,1016.00
2023-02-20T09:29:17.848Z,1015.99
2023-02-20T09:31:51.251Z,1015.96
2023-02-20T09:34:24.049Z,1015.94
2023-02-20T09:36:57.015Z,1015.92
2023-02-20T09:39:30.360Z,1015.92
2023-02-20T09:42:03.958Z,1015.92
2023-02-20T09:44:36.952Z,1015.88
2023-02-20T09:47:10.077Z,1015.86
2023-02-20T09:49:42.937Z,1015.84
2023-02-20T09:52:19.615Z,1015.82
2023-02-20T09:54:53.142Z,1015.81
2023-02-20T09:57:25.927Z,1015.80
2023-02-20T10:00:01.785Z,1015.79
2023-02-20T10:02:32.107Z,1015.78
2023-02-20T10:05:04.854Z,1015.76
2023-02-20T10:07:38.255Z,1015.73
2023-02-20T10:10:12.384Z,1015.69
2023-02-20T10:12:46.110Z,1015.67
2023-02-20T10:15:32.923Z,1015.64
2023-02-20T10:18:06.397Z,1015.60
2023-02-20T10:20:40.092Z,1015.59
2023-02-20T10:23:13.197Z,1015.57
2023-02-20T10:25:45.900Z,1015.55
2023-02-20T10:28:18.997Z,1015.55
2023-02-20T10:30:52.158Z,1015.54
2023-02-20T10:33:24.997Z,1015.55
2023-02-20T10:35:58.206Z,1015.54
2023-02-20T10:38:30.994Z,1015.54
2023-02-20T10:41:03.901Z,1015.54
2023-02-20T10:43:37.182Z,1015.55
2023-02-20T10:46:12.707Z,1015.55
2023-02-20T10:48:43.028Z,1015.55
2023-02-20T10:51:15.923Z,1015.53
2023-02-20T10:53:49.015Z,1015.52
2023-02-20T10:56:21.903Z,1015.52
2023-02-20T10:58:55.197Z,1015.50
2023-02-20T11:01:28.186Z,1015.49
2023-02-20T11:04:01.022Z,1015.45
2023-02-20T11:06:33.983Z,1015.41
2023-02-20T11:09:06.906Z,1015.38
2023-02-20T11:11:40.307Z,1015.37
2023-02-20T11:14:13.089Z,1015.34
2023-02-20T11:16:46.327Z,1015.34
2023-02-20T11:19:18.970Z,1015.32
2023-02-20T11:21:51.938Z,1015.31
2023-02-20T11:24:25.084Z,1015.30
2023-02-20T11:26:57.997Z,1015.28
2023-02-20T11:29:31.244Z,1015.25
2023-02-20T11:32:04.361Z,1015.23
2023-02-20T11:34:37.349Z,1015.21
2023-02-20T11:37:10.087Z,1015.17
2023-02-20T11:39:43.163Z,1015.16
2023-02-20T11:42:16.088Z,1015.15
2023-02-20T11:44:49.408Z,1015.11
2023-02-20T11:47:22.975Z,1015.07
2023-02-20T11:49:56.082Z,1015.04
2023-02-20T11:52:29.009Z,1015.00
2023-02-20T11:55:02.390Z,1014.96
2023-02-20T11:57:35.369Z,1014.91
2023-02-20T12:00:08.262Z,1014.86
2023-02-20T12:02:41.163Z,1014.80
2023-02-20T12:05:14.475Z,1014.78
2023-02-20T12:07:47.131Z,1014.75
2023-02-20T12:10:20.299Z,1014.72
2023-02-20T12:12:53.127Z,1014.69
2023-02-20T12:15:26.356Z,1014.63
2023-02-20T12:17:59.409Z,1014.57
2023-02-20T12:20:32.453Z,1014.54
2023-02-20T12:23:05.230Z,1014.49
2023-02-20T12:25:38.161Z,1014.46
2023-02-20T12:28:11.243Z,1014.42
2023-02-20T12:30:44.200Z,1014.39
2023-02-20T12:33:17.356Z,1014.35
2023-02-20T12:35:50.559Z,1014.31
2023-02-20T12:38:24.424Z,1014.26
2023-02-20T12:40:57.395Z,1014.22
2023-02-20T12:43:30.205Z,1014.20
2023-02-20T12:46:07.020Z,1014.17
2023-02-20T12:48:40.278Z,1014.13
2023-02-20T12:51:13.226Z,1014.10
2023-02-20T12:53:46.255Z,1014.04
2023-02-20T12:56:19.107Z,1013.98
2023-02-20T12:58:52.204Z,1013.93
2023-02-20T13:01:38.313Z,1013.89
2023-02-20T13:03:58.448Z,1013.86
2023-02-20T13:06:31.255Z,1013.86
2023-02-20T13:09:04.139Z,1013.85
2023-02-20T13:11:37.298Z,1013.83
2023-02-20T13:14:10.291Z,1013.82
2023-02-20T13:16:43.403Z,1013.81
2023-02-20T13:19:16.112Z,1013.82
2023-02-20T13:21:49.336Z,1013.82
2023-02-20T13:24:22.394Z,1013.81
2023-02-20T13:26:55.508Z,1013.79
2023-02-20T13:29:28.458Z,1013.77
2023-02-20T13:32:01.577Z,1013.71
2023-02-20T13:34:34.177Z,1013.67
2023-02-20T13:37:07.535Z,1013.64
2023-02-20T13:39:41.384Z,1013.61
2023-02-20T13:42:14.481Z,1013.59
2023-02-20T13:44:47.706Z,1013.55
2023-02-20T13:47:27.843Z,1013.52
2023-02-20T13:49:55.840Z,1013.49
2023-02-20T13:52:27.356Z,1013.44
2023-02-20T13:55:00.313Z,1013.40
2023-02-20T13:57:33.635Z,1013.35
2023-02-20T14:02:57.477Z,1013.26
2023-02-20T14:05:30.390Z,1013.20
2023-02-20T14:08:03.644Z,1013.11
2023-02-20T14:10:37.538Z,1013.05
2023-02-20T14:13:10.212Z,1012.98
2023-02-20T14:15:43.570Z,1012.91
2023-02-20T14:18:16.237Z,1012.86
2023-02-20T14:20:49.538Z,1012.81
2023-02-20T14:23:25.313Z,1012.74
2023-02-20T14:26:00.765Z,1012.67
2023-02-20T14:28:31.523Z,1012.60
2023-02-20T14:31:05.468Z,1012.57
2023-02-20T14:33:38.546Z,1012.55
2023-02-20T14:36:12.868Z,1012.51
2023-02-20T14:38:45.510Z,1012.48
2023-02-20T14:41:18.319Z,1012.42
2023-02-20T14:43:51.448Z,1012.39
2023-02-20T14:46:24.449Z,1012.35
2023-02-20T14:48:57.468Z,1012.31
2023-02-20T14:51:30.326Z,1012.27
2023-02-20T14:54:03.625Z,1012.24
2023-02-20T14:56:36.413Z,1012.20
2023-02-20T14:59:09.267Z,1012.18
2023-02-20T15:01:42.599Z,1012.15
2023-02-20T15:04:15.548Z,1012.10
2023-02-20T15:06:48.448Z,1012.07
2023-02-20T15:09:23.299Z,1012.02
2023-02-20T15:11:57.596Z,1011.99
2023-02-20T15:14:28.540Z,1011.96
2023-02-20T15:17:04.276Z,1011.92
2023-02-20T15:19:37.296Z,1011.86
2023-02-20T15:22:10.620Z,1011.83
2023-02-20T15:24:43.442Z,1011.81
2023-02-20T15:27:16.553Z,1011.75
2023-02-20T15:29:49.617Z,1011.73
2023-02-20T15:32:22.421Z,1011.71
2023-02-20T15:34:55.422Z,1011.67
2023-02-20T15:37:37.994Z,1011.66
2023-02-20T15:40:01.451Z,1011.66
2023-02-20T15:42:34.417Z,1011.67
2023-02-20T15:45:07.748Z,1011.67
2023-02-20T15:47:40.707Z,1011.67
2023-02-20T15:50:13.572Z,1011.64
2023-02-20T15:52:46.631Z,1011.62
2023-02-20T15:55:19.382Z,1011.60
2023-02-20T15:57:52.661Z,1011.59
2023-02-20T16:00:25.568Z,1011.60
2023-02-20T16:02:58.516Z,1011.59
2023-02-20T16:05:31.519Z,1011.59
2023-02-20T16:08:04.560Z,1011.59
2023-02-20T16:10:37.392Z,1011.55
2023-02-20T16:13:10.829Z,1011.51
2023-02-20T16:15:44.660Z,1011.50
2023-02-20T16:18:17.489Z,1011.48
2023-02-20T16:20:51.551Z,1011.48
2023-02-20T16:23:24.427Z,1011.46
2023-02-20T16:28:47.550Z,1011.40
2023-02-20T16:31:20.633Z,1011.37
2023-02-20T16:33:53.433Z,1011.35
2023-02-20T16:36:27.011Z,1011.32
2023-02-20T16:38:59.514Z,1011.31
2023-02-20T16:41:32.509Z,1011.30
2023-02-20T16:44:05.503Z,1011.30
2023-02-20T16:46:39.080Z,1011.32
2023-02-20T16:49:12.431Z,1011.36
2023-02-20T16:51:45.598Z,1011.40
2023-02-20T16:54:18.446Z,1011.43
2023-02-20T16:56:51.440Z,1011.45
2023-02-20T16:59:24.486Z,1011.47
2023-02-20T17:01:58.792Z,1011.48
2023-02-20T17:04:31.547Z,1011.51
2023-02-20T17:07:04.575Z,1011.54
2023-02-20T17:09:43.870Z,1011.57
2023-02-20T17:12:11.922Z,1011.58
2023-02-20T17:14:45.645Z,1011.57
2023-02-20T17:17:18.730Z,1011.57
2023-02-20T17:19:51.805Z,1011.57
2023-02-20T17:22:24.745Z,1011.56
2023-02-20T17:24:57.822Z,1011.56
2023-02-20T17:27:30.830Z,1011.56
2023-02-20T17:30:03.882Z,1011.56
2023-02-20T17:32:36.875Z,1011.55
2023-02-20T17:35:09.502Z,1011.56
2023-02-20T17:37:42.833Z,1011.57
2023-02-20T17:40:15.556Z,1011.57
2023-02-20T17:42:48.811Z,1011.56
2023-02-20T17:45:21.798Z,1011.56
2023-02-20T17:47:54.908Z,1011.55
2023-02-20T17:50:27.835Z,1011.56
2023-02-20T17:53:00.873Z,1011.55
2023-02-20T17:55:34.206Z,1011.56
2023-02-20T17:58:06.809Z,1011.56
2023-02-20T18:00:39.722Z,1011.56
2023-02-20T18:03:12.905Z,1011.57
2023-02-20T18:05:45.727Z,1011.58
2023-02-20T18:08:18.785Z,1011.61
2023-02-20T18:10:51.905Z,1011.62
2023-02-20T18:13:33.950Z,1011.64
2023-02-20T18:16:06.795Z,1011.67
2023-02-20T18:18:39.540Z,1011.70
2023-02-20T18:21:12.906Z,1011.72
2023-02-20T18:23:45.685Z,1011.71
2023-02-20T18:26:18.702Z,1011.71
2023-02-20T18:28:51.693Z,1011.70
2023-02-20T18:31:24.637Z,1011.70
2023-02-20T18:33:57.739Z,1011.71
2023-02-20T18:36:30.907Z,1011.70
2023-02-20T18:39:03.699Z,1011.70
2023-02-20T18:41:36.936Z,1011.68
2023-02-20T18:44:10.054Z,1011.66
2023-02-20T18:46:43.836Z,1011.65
2023-02-20T18:49:16.885Z,1011.65
2023-02-20T18:51:49.940Z,1011.68
2023-02-20T18:54:22.882Z,1011.69
2023-02-20T18:56:55.768Z,1011.69
2023-02-20T18:59:29.122Z,1011.66
2023-02-20T19:02:02.894Z,1011.64
2023-02-20T19:04:35.842Z,1011.65
2023-02-20T19:07:08.729Z,1011.65
2023-02-20T19:09:41.821Z,1011.65
2023-02-20T19:12:14.810Z,1011.66
2023-02-20T19:14:47.641Z,1011.67
2023-02-20T19:17:20.791Z,1011.66
2023-02-20T19:19:57.613Z,1011.66
2023-02-20T19:22:30.758Z,1011.66
2023-02-20T19:25:03.900Z,1011.65
2023-02-20T19:27:36.798Z,1011.66
2023-02-20T19:30:10.112Z,1011.65
2023-02-20T19:32:42.966Z,1011.65
2023-02-20T19:35:15.795Z,1011.67
2023-02-20T19:37:48.904Z,1011.67
2023-02-20T19:40:21.938Z,1011.66
2023-02-20T19:42:54.931Z,1011.66
2023-02-20T19:45:27.942Z,1011.69
2023-02-20T19:48:00.980Z,1011.72
2023-02-20T19:50:34.051Z,1011.75
2023-02-20T19:53:06.897Z,1011.78
2023-02-20T19:55:39.981Z,1011.79
2023-02-20T19:58:13.195Z,1011.82
2023-02-20T20:00:46.717Z,1011.84
2023-02-20T20:03:19.772Z,1011.86
2023-02-20T20:05:53.054Z,1011.89
2023-02-20T20:08:25.807Z,1011.91
2023-02-20T20:10:59.051Z,1011.95
2023-02-20T20:13:31.764Z,1011.96
2023-02-20T20:16:04.873Z,1012.00
2023-02-20T20:18:37.895Z,1012.01
2023-02-20T20:21:24.826Z,1012.03
2023-02-20T20:23:57.907Z,1012.03
2023-02-20T20:26:30.958Z,1012.03
2023-02-20T20:29:03.740Z,1012.03
2023-02-20T20:31:36.853Z,1012.04
2023-02-20T20:34:09.877Z,1012.02
2023-02-20T20:36:42.842Z,1012.02
2023-02-20T20:39:16.754Z,1012.01
2023-02-20T20:41:50.164Z,1012.00
2023-02-20T20:44:22.750Z,1011.99
2023-02-20T20:46:55.862Z,1011.97
2023-02-20T20:49:29.094Z,1011.96
2023-02-20T20:52:02.247Z,1011.96
2023-02-20T20:54:36.060Z,1011.94
2023-02-20T20:57:08.912Z,1011.92
2023-02-20T20:59:42.190Z,1011.94
2023-02-20T21:02:15.262Z,1011.94
2023-02-20T21:04:50.972Z,1011.95
2023-02-20T21:07:21.795Z,1011.96
2023-02-20T21:09:55.016Z,1011.95
2023-02-20T21:12:30.723Z,1011.94
2023-02-20T21:15:03.982Z,1011.91
2023-02-20T21:17:37.084Z,1011.91
2023-02-20T21:20:09.940Z,1011.88
2023-02-20T21:22:43.086Z,1011.85
2023-02-20T21:25:16.121Z,1011.82
2023-02-20T21:27:49.080Z,1011.78
2023-02-20T21:30:22.166Z,1011.74
2023-02-20T21:32:55.160Z,1011.72
2023-02-20T21:35:28.312Z,1011.71
2023-02-20T21:38:05.089Z,1011.70
2023-02-20T21:40:38.214Z,1011.70
2023-02-20T21:43:11.095Z,1011.67
2023-02-20T21:45:43.982Z,1011.66
2023-02-20T21:48:16.878Z,1011.64
2023-02-20T21:50:50.062Z,1011.62
2023-02-20T21:53:23.007Z,1011.62
2023-02-20T21:55:56.197Z,1011.59
2023-02-20T21:58:29.227Z,1011.59
2023-02-20T22:01:01.945Z,1011.59
2023-02-20T22:03:35.012Z,1011.60
2023-02-20T22:06:08.030Z,1011.59
2023-02-20T22:08:41.097Z,1011.58
2023-02-20T22:11:14.314Z,1011.57
2023-02-20T22:13:47.269Z,1011.57
2023-02-20T22:16:20.232Z,1011.58
2023-02-20T22:18:53.253Z,1011.58
2023-02-20T22:21:26.154Z,1011.58
2023-02-20T22:23:59.231Z,1011.57
2023-02-20T22:26:32.176Z,1011.55
2023-02-20T22:29:05.454Z,1011.55
2023-02-20T22:31:39.506Z,1011.54
2023-02-20T22:34:12.293Z,1011.53
2023-02-20T22:36:45.448Z,1011.52
2023-02-20T22:39:19.100Z,1011.50
2023-02-20T22:41:52.175Z,1011.51
2023-02-20T22:44:25.052Z,1011.50
2023-02-20T22:46:58.252Z,1011.48
2023-02-20T22:49:31.235Z,1011.48
2023-02-20T22:52:04.414Z,1011.47
2023-02-20T22:54:38.283Z,1011.47
2023-02-20T22:57:11.196Z,1011.44
2023-02-20T22:59:44.098Z,1011.43
2023-02-20T23:02:17.328Z,1011.40
2023-02-20T23:04:50.369Z,1011.39
2023-02-20T23:07:23.336Z,1011.39
2023-02-20T23:09:56.369Z,1011.38
2023-02-20T23:12:29.231Z,1011.36
2023-02-20T23:15:02.158Z,1011.37
2023-02-20T23:17:37.530Z,1011.37
2023-02-20T23:20:08.104Z,1011.34
2023-02-20T23:22:41.349Z,1011.33
2023-02-20T23:25:14.400Z,1011.32
2023-02-20T23:27:47.363Z,1011.34
2023-02-20T23:30:20.310Z,1011.33
2023-02-20T23:32:53.232Z,1011.31
2023-02-20T23:35:26.270Z,1011.29
2023-02-20T23:37:59.402Z,1011.28
2023-02-20T23:40:36.821Z,1011.28
2023-02-20T23:43:05.155Z,1011.28
2023-02-20T23:45:38.286Z,1011.30
2023-02-20T23:48:11.350Z,1011.29
2023-02-20T23:50:44.421Z,1011.30
2023-02-20T23:53:17.371Z,1011.30
2023-02-20T23:55:50.407Z,1011.30
2023-02-20T23:58:23.549Z,1011.29
